createdAt,value
2017-07-18T00:00:30.772Z,996.96
2017-07-18T00:01:30.804Z,996.92
2017-07-18T00:02:30.831Z,996.97
2017-07-18T00:03:30.861Z,996.97
2017-07-18T00:04:30.895Z,996.89
2017-07-18T00:05:30.922Z,996.94
2017-07-18T00:06:30.953Z,996.95
2017-07-18T00:07:30.980Z,996.93
2017-07-18T00:08:31.014Z,996.96
2017-07-18T00:09:31.042Z,996.92
2017-07-18T00:10:31.074Z,996.93
2017-07-18T00:11:31.104Z,996.92
2017-07-18T00:12:31.134Z,996.92
2017-07-18T00:13:31.162Z,996.92
2017-07-18T00:14:31.191Z,996.9
2017-07-18T00:15:31.223Z,996.91
2017-07-18T00:16:31.251Z,996.93
2017-07-18T00:17:31.277Z,996.93
2017-07-18T00:18:31.614Z,996.97
2017-07-18T00:19:31.343Z,996.92
2017-07-18T00:20:31.370Z,996.92
2017-07-18T00:21:31.395Z,996.84
2017-07-18T00:22:31.434Z,996.9
2017-07-18T00:23:31.709Z,996.89
2017-07-18T00:24:31.491Z,996.89
2017-07-18T00:25:31.526Z,996.89
2017-07-18T00:26:31.553Z,996.9
2017-07-18T00:27:31.582Z,996.87
2017-07-18T00:28:31.863Z,996.86
2017-07-18T00:29:31.643Z,996.85
2017-07-18T00:30:31.673Z,996.85
2017-07-18T00:31:31.702Z,996.86
2017-07-18T00:32:31.730Z,996.89
2017-07-18T00:33:32.013Z,996.85
2017-07-18T00:34:31.793Z,996.87
2017-07-18T00:35:31.817Z,996.86
2017-07-18T00:36:31.863Z,996.89
2017-07-18T00:37:31.883Z,996.87
2017-07-18T00:38:32.162Z,996.87
2017-07-18T00:39:31.940Z,996.85
2017-07-18T00:40:31.969Z,996.88
2017-07-18T00:41:32.005Z,996.9
2017-07-18T00:42:32.032Z,996.87
2017-07-18T00:43:32.358Z,996.87
2017-07-18T00:44:32.096Z,996.9
2017-07-18T00:45:32.121Z,996.9
2017-07-18T00:46:32.150Z,996.92
2017-07-18T00:47:32.177Z,996.9
2017-07-18T00:48:32.463Z,996.87
2017-07-18T00:49:32.240Z,996.89
2017-07-18T00:50:32.269Z,996.85
2017-07-18T00:51:32.302Z,996.88
2017-07-18T00:52:32.332Z,996.85
2017-07-18T00:53:32.659Z,996.87
2017-07-18T00:54:32.389Z,996.89
2017-07-18T00:55:32.420Z,996.84
2017-07-18T00:56:32.450Z,996.85
2017-07-18T00:57:32.479Z,996.83
2017-07-18T00:58:32.759Z,996.81
2017-07-18T00:59:32.541Z,996.84
2017-07-18T01:00:32.569Z,996.81
2017-07-18T01:01:32.598Z,996.84
2017-07-18T01:02:32.628Z,996.83
2017-07-18T01:03:32.960Z,996.86
2017-07-18T01:04:32.690Z,996.83
2017-07-18T01:05:32.718Z,996.83
2017-07-18T01:06:32.747Z,996.82
2017-07-18T01:07:32.779Z,996.81
2017-07-18T01:08:33.064Z,996.79
2017-07-18T01:09:32.837Z,996.79
2017-07-18T01:10:32.865Z,996.75
2017-07-18T01:11:32.894Z,996.75
2017-07-18T01:12:32.927Z,996.73
2017-07-18T01:13:33.256Z,996.68
2017-07-18T01:14:32.986Z,996.68
2017-07-18T01:15:33.017Z,996.7
2017-07-18T01:16:33.048Z,996.72
2017-07-18T01:17:33.075Z,996.67
2017-07-18T01:18:33.101Z,996.71
2017-07-18T01:19:33.134Z,996.71
2017-07-18T01:20:33.166Z,996.74
2017-07-18T01:21:33.195Z,996.69
2017-07-18T01:22:33.224Z,996.76
2017-07-18T01:23:33.252Z,996.74
2017-07-18T01:24:33.282Z,996.72
2017-07-18T01:25:33.314Z,996.69
2017-07-18T01:26:33.344Z,996.69
2017-07-18T01:27:33.371Z,996.72
2017-07-18T01:28:33.405Z,996.66
2017-07-18T01:29:33.429Z,996.74
2017-07-18T01:30:33.462Z,996.64
2017-07-18T01:31:33.491Z,996.64
2017-07-18T01:32:33.525Z,996.6
2017-07-18T01:33:33.553Z,996.61
2017-07-18T01:34:33.587Z,996.58
2017-07-18T01:35:33.611Z,996.56
2017-07-18T01:36:33.642Z,996.55
2017-07-18T01:37:33.672Z,996.57
2017-07-18T01:38:33.701Z,996.55
2017-07-18T01:39:33.729Z,996.53
2017-07-18T01:40:33.763Z,996.58
2017-07-18T01:41:33.791Z,996.57
2017-07-18T01:42:33.818Z,996.61
2017-07-18T01:43:33.843Z,996.61
2017-07-18T01:44:33.876Z,996.55
2017-07-18T01:45:33.906Z,996.52
2017-07-18T01:46:33.939Z,996.52
2017-07-18T01:47:33.971Z,996.52
2017-07-18T01:48:33.998Z,996.5
2017-07-18T01:49:34.026Z,996.51
2017-07-18T01:50:34.059Z,996.48
2017-07-18T01:51:34.088Z,996.46
2017-07-18T01:52:34.113Z,996.49
2017-07-18T01:53:34.148Z,996.51
2017-07-18T01:54:34.182Z,996.51
2017-07-18T01:55:34.210Z,996.5
2017-07-18T01:56:34.239Z,996.46
2017-07-18T01:57:34.263Z,996.47
2017-07-18T01:58:34.294Z,996.45
2017-07-18T01:59:34.327Z,996.5
2017-07-18T02:00:34.358Z,996.43
2017-07-18T02:01:34.384Z,996.47
2017-07-18T02:02:34.414Z,996.42
2017-07-18T02:03:34.441Z,996.47
2017-07-18T02:04:34.475Z,996.44
2017-07-18T02:05:34.503Z,996.47
2017-07-18T02:06:34.531Z,996.43
2017-07-18T02:07:34.561Z,996.49
2017-07-18T02:08:34.594Z,996.52
2017-07-18T02:09:34.623Z,996.48
2017-07-18T02:10:34.646Z,996.47
2017-07-18T02:11:34.680Z,996.48
2017-07-18T02:12:34.709Z,996.45
2017-07-18T02:13:34.742Z,996.47
2017-07-18T02:14:34.771Z,996.45
2017-07-18T02:15:34.800Z,996.47
2017-07-18T02:16:34.829Z,996.47
2017-07-18T02:17:34.849Z,996.53
2017-07-18T02:18:34.884Z,996.49
2017-07-18T02:19:34.919Z,996.47
2017-07-18T02:20:34.948Z,996.47
2017-07-18T02:21:34.979Z,996.42
2017-07-18T02:22:35.006Z,996.46
2017-07-18T02:23:35.038Z,996.43
2017-07-18T02:24:35.063Z,996.41
2017-07-18T02:25:35.095Z,996.42
2017-07-18T02:26:35.126Z,996.41
2017-07-18T02:27:35.153Z,996.41
2017-07-18T02:28:35.187Z,996.37
2017-07-18T02:29:35.215Z,996.32
2017-07-18T02:30:35.245Z,996.35
2017-07-18T02:31:35.274Z,996.33
2017-07-18T02:32:35.301Z,996.34
2017-07-18T02:33:35.331Z,996.3
2017-07-18T02:34:35.364Z,996.26
2017-07-18T02:35:35.389Z,996.21
2017-07-18T02:36:35.421Z,996.2
2017-07-18T02:37:35.465Z,996.21
2017-07-18T02:38:35.479Z,996.23
2017-07-18T02:39:35.506Z,996.17
2017-07-18T02:40:35.543Z,996.15
2017-07-18T02:41:35.569Z,996.24
2017-07-18T02:42:35.595Z,996.18
2017-07-18T02:43:35.627Z,996.22
2017-07-18T02:44:35.657Z,996.22
2017-07-18T02:45:35.687Z,996.2
2017-07-18T02:46:35.716Z,996.2
2017-07-18T02:47:35.746Z,996.27
2017-07-18T02:48:35.774Z,996.22
2017-07-18T02:49:35.802Z,996.21
2017-07-18T02:50:35.836Z,996.26
2017-07-18T02:51:35.865Z,996.22
2017-07-18T02:52:35.895Z,996.21
2017-07-18T02:53:35.922Z,996.19
2017-07-18T02:54:36.200Z,996.23
2017-07-18T02:55:35.978Z,996.27
2017-07-18T02:56:36.011Z,996.23
2017-07-18T02:57:36.041Z,996.23
2017-07-18T02:58:36.071Z,996.22
2017-07-18T02:59:36.099Z,996.24
2017-07-18T03:00:36.130Z,996.27
2017-07-18T03:01:36.161Z,996.32
2017-07-18T03:02:36.189Z,996.27
2017-07-18T03:03:36.218Z,996.22
2017-07-18T03:04:36.247Z,996.23
2017-07-18T03:05:36.272Z,996.2
2017-07-18T03:06:36.310Z,996.28
2017-07-18T03:07:36.339Z,996.27
2017-07-18T03:08:36.369Z,996.24
2017-07-18T03:09:36.400Z,996.26
2017-07-18T03:10:36.429Z,996.26
2017-07-18T03:11:36.454Z,996.27
2017-07-18T03:12:36.483Z,996.26
2017-07-18T03:13:36.517Z,996.32
2017-07-18T03:14:36.548Z,996.28
2017-07-18T03:15:36.573Z,996.31
2017-07-18T03:16:36.608Z,996.32
2017-07-18T03:17:36.631Z,996.29
2017-07-18T03:18:36.666Z,996.31
2017-07-18T03:19:36.694Z,996.3
2017-07-18T03:20:36.724Z,996.31
2017-07-18T03:21:36.755Z,996.32
2017-07-18T03:22:36.784Z,996.31
2017-07-18T03:23:36.809Z,996.31
2017-07-18T03:24:36.839Z,996.24
2017-07-18T03:25:36.870Z,996.26
2017-07-18T03:26:36.901Z,996.25
2017-07-18T03:27:36.926Z,996.26
2017-07-18T03:28:36.951Z,996.24
2017-07-18T03:29:36.984Z,996.27
2017-07-18T03:30:37.018Z,996.22
2017-07-18T03:31:37.048Z,996.25
2017-07-18T03:32:37.077Z,996.27
2017-07-18T03:33:37.104Z,996.25
2017-07-18T03:34:37.132Z,996.23
2017-07-18T03:35:37.161Z,996.25
2017-07-18T03:36:37.190Z,996.24
2017-07-18T03:37:37.221Z,996.22
2017-07-18T03:38:37.257Z,996.22
2017-07-18T03:39:37.280Z,996.2
2017-07-18T03:40:37.308Z,996.21
2017-07-18T03:41:37.338Z,996.27
2017-07-18T03:42:37.367Z,996.2
2017-07-18T03:43:37.396Z,996.24
2017-07-18T03:44:37.429Z,996.22
2017-07-18T03:45:37.461Z,996.23
2017-07-18T03:46:37.486Z,996.21
2017-07-18T03:47:37.514Z,996.23
2017-07-18T03:48:37.545Z,996.18
2017-07-18T03:49:37.573Z,996.2
2017-07-18T03:50:37.598Z,996.21
2017-07-18T03:51:37.634Z,996.21
2017-07-18T03:52:37.663Z,996.2
2017-07-18T03:53:37.692Z,996.21
2017-07-18T03:54:37.722Z,996.2
2017-07-18T03:55:37.749Z,996.18
2017-07-18T03:56:37.775Z,996.17
2017-07-18T03:57:37.808Z,996.19
2017-07-18T03:58:37.835Z,996.18
2017-07-18T03:59:37.869Z,996.17
2017-07-18T04:00:37.898Z,996.2
2017-07-18T04:01:37.926Z,996.2
2017-07-18T04:02:37.955Z,996.16
2017-07-18T04:03:37.984Z,996.19
2017-07-18T04:04:38.012Z,996.16
2017-07-18T04:05:38.037Z,996.2
2017-07-18T04:06:38.074Z,996.19
2017-07-18T04:07:38.104Z,996.17
2017-07-18T04:08:38.153Z,996.14
2017-07-18T04:09:38.161Z,996.16
2017-07-18T04:10:38.190Z,996.18
2017-07-18T04:11:38.218Z,996.19
2017-07-18T04:12:38.250Z,996.19
2017-07-18T04:13:38.279Z,996.17
2017-07-18T04:14:38.309Z,996.2
2017-07-18T04:15:38.338Z,996.16
2017-07-18T04:16:38.367Z,996.22
2017-07-18T04:17:38.395Z,996.19
2017-07-18T04:18:38.424Z,996.22
2017-07-18T04:19:38.453Z,996.18
2017-07-18T04:20:38.734Z,996.24
2017-07-18T04:21:38.514Z,996.2
2017-07-18T04:22:38.543Z,996.17
2017-07-18T04:23:38.573Z,996.23
2017-07-18T04:24:38.602Z,996.2
2017-07-18T04:25:38.879Z,996.21
2017-07-18T04:26:38.655Z,996.26
2017-07-18T04:27:38.686Z,996.22
2017-07-18T04:28:38.717Z,996.23
2017-07-18T04:29:38.746Z,996.27
2017-07-18T04:30:39.078Z,996.26
2017-07-18T04:31:38.807Z,996.32
2017-07-18T04:32:38.836Z,996.28
2017-07-18T04:33:38.861Z,996.27
2017-07-18T04:34:38.893Z,996.29
2017-07-18T04:35:39.177Z,996.29
2017-07-18T04:36:38.952Z,996.28
2017-07-18T04:37:38.984Z,996.28
2017-07-18T04:38:39.013Z,996.29
2017-07-18T04:39:39.046Z,996.27
2017-07-18T04:40:39.326Z,996.3
2017-07-18T04:41:39.099Z,996.3
2017-07-18T04:42:39.124Z,996.3
2017-07-18T04:43:39.165Z,996.26
2017-07-18T04:44:39.186Z,996.28
2017-07-18T04:45:39.466Z,996.28
2017-07-18T04:46:39.254Z,996.24
2017-07-18T04:47:39.279Z,996.3
2017-07-18T04:48:39.306Z,996.31
2017-07-18T04:49:39.329Z,996.34
2017-07-18T04:50:39.661Z,996.33
2017-07-18T04:51:39.391Z,996.32
2017-07-18T04:52:39.420Z,996.32
2017-07-18T04:53:39.453Z,996.33
2017-07-18T04:54:39.480Z,996.28
2017-07-18T04:55:39.764Z,996.32
2017-07-18T04:56:39.539Z,996.28
2017-07-18T04:57:39.564Z,996.28
2017-07-18T04:58:39.596Z,996.29
2017-07-18T04:59:39.624Z,996.28
2017-07-18T05:00:39.954Z,996.26
2017-07-18T05:01:39.687Z,996.29
2017-07-18T05:02:39.719Z,996.26
2017-07-18T05:03:39.745Z,996.21
2017-07-18T05:04:39.775Z,996.22
2017-07-18T05:05:40.102Z,996.23
2017-07-18T05:06:39.834Z,996.18
2017-07-18T05:07:39.860Z,996.21
2017-07-18T05:08:39.889Z,996.22
2017-07-18T05:09:39.917Z,996.2
2017-07-18T05:10:40.198Z,996.2
2017-07-18T05:11:39.979Z,996.21
2017-07-18T05:12:40.008Z,996.24
2017-07-18T05:13:40.037Z,996.2
2017-07-18T05:14:40.066Z,996.21
2017-07-18T05:15:40.094Z,996.19
2017-07-18T05:16:40.124Z,996.25
2017-07-18T05:17:40.154Z,996.23
2017-07-18T05:18:40.177Z,996.23
2017-07-18T05:19:40.209Z,996.22
2017-07-18T05:20:40.239Z,996.19
2017-07-18T05:21:40.271Z,996.22
2017-07-18T05:22:40.302Z,996.19
2017-07-18T05:23:40.330Z,996.18
2017-07-18T05:24:40.359Z,996.19
2017-07-18T05:25:40.385Z,996.18
2017-07-18T05:26:40.416Z,996.18
2017-07-18T05:27:40.445Z,996.17
2017-07-18T05:28:40.474Z,996.12
2017-07-18T05:29:40.508Z,996.13
2017-07-18T05:30:40.535Z,996.13
2017-07-18T05:31:40.563Z,996.15
2017-07-18T05:32:40.592Z,996.1
2017-07-18T05:33:40.625Z,996.1
2017-07-18T05:34:40.650Z,996.14
2017-07-18T05:35:40.678Z,996.12
2017-07-18T05:36:40.707Z,996.14
2017-07-18T05:37:40.741Z,996.12
2017-07-18T05:38:40.770Z,996.13
2017-07-18T05:39:40.798Z,996.12
2017-07-18T05:40:40.827Z,996.12
2017-07-18T05:41:40.860Z,996.11
2017-07-18T05:42:40.885Z,996.12
2017-07-18T05:43:40.911Z,996.1
2017-07-18T05:44:40.942Z,996.08
2017-07-18T05:45:40.971Z,996.09
2017-07-18T05:46:40.999Z,996.04
2017-07-18T05:47:41.031Z,996.04
2017-07-18T05:48:41.062Z,995.99
2017-07-18T05:49:41.114Z,996.01
2017-07-18T05:50:41.126Z,996.03
2017-07-18T05:51:41.147Z,996
2017-07-18T05:52:41.174Z,995.95
2017-07-18T05:53:41.205Z,995.96
2017-07-18T05:54:41.234Z,995.98
2017-07-18T05:55:41.275Z,995.99
2017-07-18T05:56:41.296Z,995.97
2017-07-18T05:57:41.328Z,995.99
2017-07-18T05:58:41.356Z,995.98
2017-07-18T05:59:41.388Z,995.94
2017-07-18T06:00:41.413Z,995.99
2017-07-18T06:01:41.435Z,995.98
2017-07-18T06:02:41.470Z,995.94
2017-07-18T06:03:41.504Z,995.95
2017-07-18T06:04:41.533Z,995.91
2017-07-18T06:05:41.561Z,995.91
2017-07-18T06:06:41.598Z,995.95
2017-07-18T06:07:41.619Z,995.95
2017-07-18T06:08:41.648Z,995.95
2017-07-18T06:09:41.674Z,995.95
2017-07-18T06:10:41.710Z,995.97
2017-07-18T06:11:41.738Z,995.94
2017-07-18T06:12:41.765Z,996.01
2017-07-18T06:13:41.794Z,995.94
2017-07-18T06:14:41.823Z,995.99
2017-07-18T06:15:41.846Z,996
2017-07-18T06:16:41.881Z,995.98
2017-07-18T06:17:41.913Z,995.95
2017-07-18T06:18:41.943Z,995.96
2017-07-18T06:19:41.971Z,995.95
2017-07-18T06:20:41.999Z,995.96
2017-07-18T06:21:42.028Z,995.98
2017-07-18T06:22:42.058Z,995.97
2017-07-18T06:23:42.086Z,995.97
2017-07-18T06:24:42.111Z,995.95
2017-07-18T06:25:42.147Z,995.98
2017-07-18T06:26:42.177Z,996
2017-07-18T06:27:42.206Z,995.98
2017-07-18T06:28:42.234Z,996
2017-07-18T06:29:42.262Z,996.01
2017-07-18T06:30:42.294Z,996.01
2017-07-18T06:31:42.322Z,995.99
2017-07-18T06:32:42.352Z,996
2017-07-18T06:33:42.377Z,996.01
2017-07-18T06:34:42.411Z,995.98
2017-07-18T06:35:42.440Z,995.96
2017-07-18T06:36:42.468Z,995.97
2017-07-18T06:37:42.494Z,995.91
2017-07-18T06:38:42.523Z,995.94
2017-07-18T06:39:42.555Z,995.94
2017-07-18T06:40:42.589Z,995.99
2017-07-18T06:41:42.614Z,995.92
2017-07-18T06:42:42.646Z,995.92
2017-07-18T06:43:42.676Z,995.94
2017-07-18T06:44:42.704Z,995.89
2017-07-18T06:45:42.732Z,995.86
2017-07-18T06:46:42.759Z,995.85
2017-07-18T06:47:42.792Z,995.89
2017-07-18T06:48:42.819Z,995.88
2017-07-18T06:49:42.852Z,995.88
2017-07-18T06:50:42.881Z,995.87
2017-07-18T06:51:42.908Z,995.93
2017-07-18T06:52:42.936Z,995.89
2017-07-18T06:53:42.966Z,995.91
2017-07-18T06:54:42.996Z,995.91
2017-07-18T06:55:43.024Z,995.91
2017-07-18T06:56:43.060Z,995.89
2017-07-18T06:57:43.086Z,995.87
2017-07-18T06:58:43.114Z,995.85
2017-07-18T06:59:43.145Z,995.83
2017-07-18T07:00:43.172Z,995.83
2017-07-18T07:01:43.203Z,995.82
2017-07-18T07:02:43.234Z,995.82
2017-07-18T07:03:43.261Z,995.81
2017-07-18T07:04:43.289Z,995.79
2017-07-18T07:05:43.319Z,995.79
2017-07-18T07:06:43.350Z,995.81
2017-07-18T07:07:43.376Z,995.81
2017-07-18T07:08:43.407Z,995.79
2017-07-18T07:09:43.440Z,995.81
2017-07-18T07:10:43.467Z,995.81
2017-07-18T07:11:43.497Z,995.78
2017-07-18T07:12:43.527Z,995.76
2017-07-18T07:13:43.555Z,995.78
2017-07-18T07:14:43.582Z,995.73
2017-07-18T07:15:43.612Z,995.7
2017-07-18T07:16:43.645Z,995.63
2017-07-18T07:17:43.674Z,995.64
2017-07-18T07:18:43.704Z,995.66
2017-07-18T07:19:43.732Z,995.64
2017-07-18T07:20:43.762Z,995.62
2017-07-18T07:21:43.789Z,995.63
2017-07-18T07:22:43.825Z,995.62
2017-07-18T07:23:43.851Z,995.57
2017-07-18T07:24:43.877Z,995.56
2017-07-18T07:25:43.911Z,995.63
2017-07-18T07:26:43.940Z,995.56
2017-07-18T07:27:43.972Z,995.6
2017-07-18T07:28:44.001Z,995.63
2017-07-18T07:29:44.029Z,995.62
2017-07-18T07:30:44.061Z,995.62
2017-07-18T07:31:44.087Z,995.65
2017-07-18T07:32:44.115Z,995.68
2017-07-18T07:33:44.143Z,995.68
2017-07-18T07:34:44.175Z,995.63
2017-07-18T07:35:44.205Z,995.66
2017-07-18T07:36:44.235Z,995.62
2017-07-18T07:37:44.262Z,995.58
2017-07-18T07:38:44.294Z,995.59
2017-07-18T07:39:44.319Z,995.55
2017-07-18T07:40:44.354Z,995.57
2017-07-18T07:41:44.377Z,995.56
2017-07-18T07:42:44.665Z,995.6
2017-07-18T07:43:44.439Z,995.58
2017-07-18T07:44:44.473Z,995.61
2017-07-18T07:45:44.501Z,995.59
2017-07-18T07:46:44.530Z,995.58
2017-07-18T07:47:44.554Z,995.58
2017-07-18T07:48:44.588Z,995.56
2017-07-18T07:49:44.620Z,995.52
2017-07-18T07:50:44.649Z,995.53
2017-07-18T07:51:44.678Z,995.5
2017-07-18T07:52:44.705Z,995.49
2017-07-18T07:53:44.735Z,995.5
2017-07-18T07:54:44.764Z,995.47
2017-07-18T07:55:44.797Z,995.5
2017-07-18T07:56:44.821Z,995.48
2017-07-18T07:57:44.855Z,995.48
2017-07-18T07:58:44.884Z,995.51
2017-07-18T07:59:44.911Z,995.49
2017-07-18T08:00:44.945Z,995.53
2017-07-18T08:01:44.970Z,995.52
2017-07-18T08:02:45.003Z,995.51
2017-07-18T08:03:45.032Z,995.54
2017-07-18T08:04:45.060Z,995.51
2017-07-18T08:05:45.089Z,995.48
2017-07-18T08:06:45.123Z,995.49
2017-07-18T08:07:45.149Z,995.5
2017-07-18T08:08:45.181Z,995.42
2017-07-18T08:09:45.206Z,995.41
2017-07-18T08:10:45.238Z,995.44
2017-07-18T08:11:45.521Z,995.43
2017-07-18T08:12:45.299Z,995.46
2017-07-18T08:13:45.328Z,995.48
2017-07-18T08:14:45.356Z,995.46
2017-07-18T08:15:45.384Z,995.45
2017-07-18T08:16:45.664Z,995.49
2017-07-18T08:17:45.448Z,995.45
2017-07-18T08:18:45.480Z,995.47
2017-07-18T08:19:45.505Z,995.44
2017-07-18T08:20:45.534Z,995.42
2017-07-18T08:21:45.818Z,995.38
2017-07-18T08:22:45.594Z,995.38
2017-07-18T08:23:45.622Z,995.36
2017-07-18T08:24:45.655Z,995.35
2017-07-18T08:25:45.682Z,995.37
2017-07-18T08:26:45.962Z,995.34
2017-07-18T08:27:45.737Z,995.32
2017-07-18T08:28:45.771Z,995.3
2017-07-18T08:29:45.800Z,995.33
2017-07-18T08:30:45.828Z,995.32
2017-07-18T08:31:46.115Z,995.3
2017-07-18T08:32:45.890Z,995.28
2017-07-18T08:33:45.916Z,995.28
2017-07-18T08:34:45.949Z,995.26
2017-07-18T08:35:45.977Z,995.26
2017-07-18T08:36:46.264Z,995.24
2017-07-18T08:37:46.039Z,995.25
2017-07-18T08:38:46.068Z,995.23
2017-07-18T08:39:46.097Z,995.23
2017-07-18T08:40:46.128Z,995.26
2017-07-18T08:41:46.158Z,995.21
2017-07-18T08:42:46.188Z,995.18
2017-07-18T08:43:46.219Z,995.21
2017-07-18T08:44:46.249Z,995.2
2017-07-18T08:45:46.279Z,995.18
2017-07-18T08:46:46.307Z,995.17
2017-07-18T08:47:46.341Z,995.21
2017-07-18T08:48:46.367Z,995.2
2017-07-18T08:49:46.392Z,995.16
2017-07-18T08:50:46.425Z,995.12
2017-07-18T08:51:46.456Z,995.16
2017-07-18T08:52:46.488Z,995.16
2017-07-18T08:53:46.512Z,995.16
2017-07-18T08:54:46.539Z,995.15
2017-07-18T08:55:46.574Z,995.13
2017-07-18T08:56:46.603Z,995.14
2017-07-18T08:57:46.632Z,995.14
2017-07-18T08:58:46.664Z,995.09
2017-07-18T08:59:46.692Z,995.11
2017-07-18T09:00:46.722Z,995.06
2017-07-18T09:01:46.751Z,995.07
2017-07-18T09:02:46.783Z,995.03
2017-07-18T09:03:46.812Z,995.06
2017-07-18T09:04:46.840Z,995.05
2017-07-18T09:05:46.870Z,995.04
2017-07-18T09:06:46.902Z,995.06
2017-07-18T09:07:46.931Z,995.05
2017-07-18T09:08:46.959Z,995.05
2017-07-18T09:09:46.989Z,995.06
2017-07-18T09:10:47.021Z,995.08
2017-07-18T09:11:47.053Z,995.08
2017-07-18T09:12:47.078Z,995.12
2017-07-18T09:13:47.107Z,995.14
2017-07-18T09:14:47.132Z,995.16
2017-07-18T09:15:47.175Z,995.13
2017-07-18T09:16:47.199Z,995.16
2017-07-18T09:17:47.227Z,995.12
2017-07-18T09:18:47.257Z,995.14
2017-07-18T09:19:47.292Z,995.12
2017-07-18T09:20:47.317Z,995.13
2017-07-18T09:21:47.347Z,995.09
2017-07-18T09:22:47.380Z,995.1
2017-07-18T09:23:47.406Z,995.11
2017-07-18T09:24:47.437Z,995.12
2017-07-18T09:25:47.467Z,995.08
2017-07-18T09:26:47.499Z,995.1
2017-07-18T09:27:47.528Z,995.09
2017-07-18T09:28:47.557Z,995.05
2017-07-18T09:29:47.585Z,995.03
2017-07-18T09:30:47.618Z,995.04
2017-07-18T09:31:47.647Z,994.96
2017-07-18T09:32:47.676Z,994.99
2017-07-18T09:33:47.710Z,994.92
2017-07-18T09:34:47.737Z,994.92
2017-07-18T09:35:47.766Z,994.94
2017-07-18T09:36:47.796Z,994.92
2017-07-18T09:37:47.828Z,994.89
2017-07-18T09:38:47.857Z,994.93
2017-07-18T09:39:47.885Z,994.9
2017-07-18T09:40:47.915Z,994.88
2017-07-18T09:41:47.943Z,994.86
2017-07-18T09:42:47.975Z,994.84
2017-07-18T09:43:48.005Z,994.85
2017-07-18T09:44:48.037Z,994.84
2017-07-18T09:45:48.071Z,994.82
2017-07-18T09:46:48.096Z,994.81
2017-07-18T09:47:48.124Z,994.85
2017-07-18T09:48:48.157Z,994.82
2017-07-18T09:49:48.186Z,994.84
2017-07-18T09:50:48.215Z,994.83
2017-07-18T09:51:48.247Z,994.77
2017-07-18T09:52:48.277Z,994.77
2017-07-18T09:53:48.306Z,994.74
2017-07-18T09:54:48.358Z,994.73
2017-07-18T09:55:48.366Z,994.72
2017-07-18T09:56:48.396Z,994.72
2017-07-18T09:57:48.428Z,994.69
2017-07-18T09:58:48.456Z,994.69
2017-07-18T09:59:48.482Z,994.66
2017-07-18T10:00:48.515Z,994.67
2017-07-18T10:01:48.548Z,994.62
2017-07-18T10:02:48.575Z,994.62
2017-07-18T10:03:48.608Z,994.63
2017-07-18T10:04:48.638Z,994.6
2017-07-18T10:05:48.670Z,994.56
2017-07-18T10:06:48.696Z,994.54
2017-07-18T10:07:48.727Z,994.56
2017-07-18T10:08:48.757Z,994.58
2017-07-18T10:09:48.788Z,994.53
2017-07-18T10:10:48.818Z,994.54
2017-07-18T10:11:48.847Z,994.49
2017-07-18T10:12:48.878Z,994.49
2017-07-18T10:13:48.906Z,994.5
2017-07-18T10:14:48.939Z,994.4
2017-07-18T10:15:48.967Z,994.47
2017-07-18T10:16:48.993Z,994.49
2017-07-18T10:17:49.020Z,994.47
2017-07-18T10:18:49.058Z,994.45
2017-07-18T10:19:49.090Z,994.41
2017-07-18T10:20:49.115Z,994.39
2017-07-18T10:21:49.148Z,994.4
2017-07-18T10:22:49.177Z,994.42
2017-07-18T10:23:49.208Z,994.39
2017-07-18T10:24:49.238Z,994.38
2017-07-18T10:25:49.268Z,994.38
2017-07-18T10:26:49.292Z,994.36
2017-07-18T10:27:49.330Z,994.37
2017-07-18T10:28:49.359Z,994.37
2017-07-18T10:29:49.390Z,994.36
2017-07-18T10:30:49.416Z,994.33
2017-07-18T10:31:49.449Z,994.33
2017-07-18T10:32:49.477Z,994.36
2017-07-18T10:33:49.510Z,994.34
2017-07-18T10:34:49.539Z,994.39
2017-07-18T10:35:49.568Z,994.34
2017-07-18T10:36:49.600Z,994.35
2017-07-18T10:37:49.629Z,994.38
2017-07-18T10:38:49.658Z,994.37
2017-07-18T10:39:49.686Z,994.36
2017-07-18T10:40:49.720Z,994.32
2017-07-18T10:41:49.750Z,994.34
2017-07-18T10:42:49.782Z,994.35
2017-07-18T10:43:49.810Z,994.36
2017-07-18T10:44:49.839Z,994.33
2017-07-18T10:45:49.872Z,994.39
2017-07-18T10:46:49.901Z,994.42
2017-07-18T10:47:49.933Z,994.36
2017-07-18T10:48:49.964Z,994.31
2017-07-18T10:49:49.993Z,994.32
2017-07-18T10:50:50.024Z,994.3
2017-07-18T10:51:50.054Z,994.3
2017-07-18T10:52:50.078Z,994.28
2017-07-18T10:53:50.113Z,994.25
2017-07-18T10:54:50.144Z,994.23
2017-07-18T10:55:50.175Z,994.22
2017-07-18T10:56:50.205Z,994.21
2017-07-18T10:57:50.233Z,994.2
2017-07-18T10:58:50.266Z,994.18
2017-07-18T10:59:50.294Z,994.17
2017-07-18T11:00:50.324Z,994.12
2017-07-18T11:01:50.358Z,994.14
2017-07-18T11:02:50.385Z,994.12
2017-07-18T11:03:50.418Z,994.06
2017-07-18T11:04:50.452Z,994.03
2017-07-18T11:05:50.477Z,994.02
2017-07-18T11:06:50.511Z,994.04
2017-07-18T11:07:50.539Z,994.03
2017-07-18T11:08:50.571Z,994.07
2017-07-18T11:09:50.596Z,994.05
2017-07-18T11:10:50.632Z,994.04
2017-07-18T11:11:50.662Z,994.06
2017-07-18T11:12:50.686Z,994.03
2017-07-18T11:13:50.719Z,994.02
2017-07-18T11:14:50.752Z,994.03
2017-07-18T11:15:50.781Z,993.97
2017-07-18T11:16:50.814Z,993.96
2017-07-18T11:17:50.862Z,993.99
2017-07-18T11:18:50.873Z,993.97
2017-07-18T11:19:50.905Z,993.92
2017-07-18T11:20:50.937Z,993.93
2017-07-18T11:21:50.968Z,993.94
2017-07-18T11:22:51.000Z,993.9
2017-07-18T11:23:51.031Z,993.92
2017-07-18T11:24:51.059Z,993.89
2017-07-18T11:25:51.090Z,993.92
2017-07-18T11:26:51.117Z,993.89
2017-07-18T11:27:51.151Z,993.85
2017-07-18T11:28:51.180Z,993.87
2017-07-18T11:29:51.211Z,993.87
2017-07-18T11:30:51.245Z,993.85
2017-07-18T11:31:51.270Z,993.88
2017-07-18T11:32:51.298Z,993.88
2017-07-18T11:33:51.330Z,993.81
2017-07-18T11:34:51.364Z,993.79
2017-07-18T11:35:51.393Z,993.83
2017-07-18T11:36:51.426Z,993.81
2017-07-18T11:37:51.706Z,993.85
2017-07-18T11:38:51.494Z,993.79
2017-07-18T11:39:51.516Z,993.81
2017-07-18T11:40:51.544Z,993.88
2017-07-18T11:41:51.574Z,993.89
2017-07-18T11:42:51.858Z,993.93
2017-07-18T11:43:51.639Z,993.9
2017-07-18T11:44:51.668Z,993.84
2017-07-18T11:45:51.701Z,993.79
2017-07-18T11:46:51.735Z,993.81
2017-07-18T11:47:52.015Z,993.66
2017-07-18T11:48:51.795Z,993.65
2017-07-18T11:49:51.824Z,993.61
2017-07-18T11:50:51.858Z,993.63
2017-07-18T11:51:51.886Z,993.58
2017-07-18T11:52:52.165Z,993.57
2017-07-18T11:53:51.953Z,993.56
2017-07-18T11:54:51.976Z,993.53
2017-07-18T11:55:52.014Z,993.63
2017-07-18T11:56:52.046Z,993.62
2017-07-18T11:57:52.326Z,993.71
2017-07-18T11:58:52.109Z,993.67
2017-07-18T11:59:52.141Z,993.65
2017-07-18T12:00:52.170Z,993.66
2017-07-18T12:01:52.201Z,993.62
2017-07-18T12:02:52.534Z,993.41
2017-07-18T12:03:52.264Z,993.47
2017-07-18T12:04:52.296Z,993.6
2017-07-18T12:05:52.342Z,993.49
2017-07-18T12:06:52.363Z,993.49
2017-07-18T12:07:52.644Z,993.52
2017-07-18T12:08:52.425Z,993.47
2017-07-18T12:09:52.457Z,993.45
2017-07-18T12:10:52.490Z,993.46
2017-07-18T12:11:52.522Z,993.44
2017-07-18T12:12:52.852Z,993.46
2017-07-18T12:13:52.585Z,993.47
2017-07-18T12:14:52.618Z,993.54
2017-07-18T12:15:52.650Z,993.47
2017-07-18T12:16:52.678Z,993.36
2017-07-18T12:17:52.958Z,993.38
2017-07-18T12:18:52.744Z,993.38
2017-07-18T12:19:52.777Z,993.37
2017-07-18T12:20:52.810Z,993.38
2017-07-18T12:21:52.840Z,993.36
2017-07-18T12:22:53.123Z,993.31
2017-07-18T12:23:52.900Z,993.37
2017-07-18T12:24:52.929Z,993.44
2017-07-18T12:25:52.966Z,993.56
2017-07-18T12:26:52.998Z,993.53
2017-07-18T12:27:53.283Z,993.53
2017-07-18T12:28:53.064Z,993.36
2017-07-18T12:29:53.098Z,993.44
2017-07-18T12:30:53.125Z,993.29